Time;durP1;ratioP1;P1;durP2;ratioP2;P2;SDS_P1;SDS_P2;PMS_P1;PMS_P2;Temp;Humidity;BMP_temperature;BMP_pressure;BME280_temperature;BME280_humidity;BME280_pressure;Samples;Min_cycle;Max_cycle;Signal;HPM_P1;HPM_P2
2023/09/02 00:00:49;;;;;;;5.87;3.90;;;;;;;21.37;59.01;97316.66;5086268;28;20244;-74
2023/09/02 00:03:16;;;;;;;5.43;3.47;;;;;;;21.63;58.33;97376.72;5086109;28;20195;-72
2023/09/02 00:05:44;;;;;;;6.43;3.63;;;;;;;21.83;58.19;97353.94;5067993;28;20190;-71
2023/09/02 00:08:11;;;;;;;4.27;3.70;;;;;;;22.01;57.83;97357.63;5086078;28;20701;-72
2023/09/02 00:10:38;;;;;;;4.27;3.87;;;;;;;21.97;57.65;97374.69;5086017;28;20235;-74
2023/09/02 00:13:05;;;;;;;4.83;3.40;;;;;;;21.79;58.29;97370.97;5089677;28;20276;-74
2023/09/02 00:15:33;;;;;;;5.07;3.20;;;;;;;21.75;58.34;97372.19;5089709;28;20677;-74
2023/09/02 00:18:00;;;;;;;5.10;3.67;;;;;;;21.61;58.60;97376.03;5089645;28;20195;-73
2023/09/02 00:20:27;;;;;;;4.43;3.57;;;;;;;21.57;59.08;97365.88;5071222;28;20197;-72
2023/09/02 00:22:54;;;;;;;4.83;3.77;;;;;;;21.45;59.07;97382.72;5071427;28;20252;-72
2023/09/02 00:25:22;;;;;;;5.77;3.67;;;;;;;21.63;59.15;97383.78;5089853;28;20240;-73
2023/09/02 00:27:49;;;;;;;4.57;3.60;;;;;;;21.91;58.82;97369.13;5089203;28;20214;-72
2023/09/02 00:30:17;;;;;;;4.10;3.70;;;;;;;22.18;58.17;97383.41;5089806;28;20186;-74
2023/09/02 00:32:44;;;;;;;5.07;3.80;;;;;;;22.04;58.15;97369.72;5071169;28;20274;-71
2023/09/02 00:35:11;;;;;;;5.97;3.97;;;;;;;21.76;59.24;97373.88;5054804;28;20345;-71
2023/09/02 00:37:39;;;;;;;4.10;3.70;;;;;;;21.48;60.89;97378.00;5070831;28;20198;-73
2023/09/02 00:40:12;;;;;;;5.57;3.70;;;;;;;21.52;61.97;97368.03;5089217;28;20189;-72
2023/09/02 00:42:43;;;;;;;4.33;3.93;;;;;;;21.69;61.92;97370.09;5089225;28;20217;-73
2023/09/02 00:45:11;;;;;;;4.27;3.63;;;;;;;21.62;61.75;97361.03;5089415;28;20193;-73
2023/09/02 00:47:38;;;;;;;4.50;3.87;;;;;;;21.86;61.46;97380.06;5071202;28;20307;-72
2023/09/02 00:50:06;;;;;;;5.03;4.30;;;;;;;21.97;60.60;97382.63;5070933;28;20673;-72
2023/09/02 00:52:34;;;;;;;5.00;3.90;;;;;;;22.08;60.53;97387.81;5089104;28;20197;-73
2023/09/02 00:55:01;;;;;;;5.83;4.43;;;;;;;21.81;60.56;97374.31;5070716;28;20209;-76
2023/09/02 00:57:31;;;;;;;5.83;4.30;;;;;;;21.93;60.51;97381.19;5054567;28;20617;-74
2023/09/02 01:00:00;;;;;;;4.20;3.80;;;;;;;21.98;60.09;97379.03;5070716;28;20590;-73
2023/09/02 01:02:32;;;;;;;4.97;3.83;;;;;;;21.92;60.29;97387.47;5088682;28;20197;-72
2023/09/02 01:05:00;;;;;;;5.17;3.80;;;;;;;21.84;60.83;97374.91;5070803;28;20507;-79
2023/09/02 01:07:32;;;;;;;6.27;4.27;;;;;;;21.79;60.96;97384.16;5088385;28;20231;-83
2023/09/02 01:10:02;;;;;;;4.17;3.67;;;;;;;21.59;60.21;97316.47;5070597;28;20248;-80
2023/09/02 01:12:33;;;;;;;5.40;4.50;;;;;;;22.08;59.87;97374.63;5053993;28;20298;-80
2023/09/02 01:15:01;;;;;;;4.30;3.90;;;;;;;21.95;59.94;97360.81;5088580;28;20194;-76
2023/09/02 01:17:34;;;;;;;4.60;4.20;;;;;;;22.26;59.10;97374.81;5071455;28;20189;-79
2023/09/02 01:20:06;;;;;;;4.07;3.67;;;;;;;21.84;60.96;97367.00;5088096;28;20308;-77
2023/09/02 01:22:37;;;;;;;5.43;3.97;;;;;;;21.87;60.33;97379.09;5070118;28;20194;-81
2023/09/02 01:25:14;;;;;;;4.63;3.63;;;;;;;21.81;60.09;97369.03;5070176;28;20188;-80
2023/09/02 01:27:56;;;;;;;4.30;3.90;;;;;;;21.89;60.07;97371.88;5070241;28;20226;-74
2023/09/02 01:30:27;;;;;;;5.90;3.90;;;;;;;21.61;60.64;97377.81;5088449;28;20214;-78
2023/09/02 01:32:56;;;;;;;4.73;4.20;;;;;;;21.63;60.44;97365.34;5070001;28;20186;-82
2023/09/02 01:35:32;;;;;;;5.03;4.23;;;;;;;21.44;60.21;97368.69;5088410;28;20196;-81
2023/09/02 01:38:03;;;;;;;5.00;4.00;;;;;;;21.58;59.83;97368.34;5069765;28;20259;-71
2023/09/02 01:40:32;;;;;;;6.87;4.07;;;;;;;21.79;60.04;97368.34;5069739;28;20212;-76
2023/09/02 01:43:01;;;;;;;4.63;4.00;;;;;;;21.43;60.28;97353.03;5069803;28;20251;-79
2023/09/02 01:45:34;;;;;;;4.87;4.33;;;;;;;21.46;61.47;97363.28;5070308;28;20190;-81
2023/09/02 01:48:03;;;;;;;8.67;4.60;;;;;;;21.54;61.60;97374.00;5088297;28;20248;-80
2023/09/02 01:50:33;;;;;;;7.53;3.53;;;;;;;21.68;60.13;97365.75;5069786;28;20193;-74
2023/09/02 01:53:02;;;;;;;7.17;3.90;;;;;;;21.59;60.52;97374.47;5087999;28;20370;-80
2023/09/02 01:55:31;;;;;;;5.20;3.90;;;;;;;21.64;60.13;97369.63;5070003;28;20193;-81
2023/09/02 01:58:00;;;;;;;4.43;3.60;;;;;;;20.77;62.48;97372.56;5070388;28;20270;-77
2023/09/02 02:00:28;;;;;;;5.47;3.90;;;;;;;20.71;63.02;97368.63;5099155;28;20281;-76
2023/09/02 02:02:55;;;;;;;4.90;4.40;;;;;;;20.56;63.43;97372.50;5106299;28;20201;-84
2023/09/02 02:05:32;;;;;;;5.00;4.47;;;;;;;20.73;62.81;97373.78;5095289;28;20189;-82
2023/09/02 02:08:05;;;;;;;5.90;4.57;;;;;;;20.41;63.94;97378.97;5088664;28;20220;-83
2023/09/02 02:10:37;;;;;;;13.63;10.57;;;;;;;20.73;63.19;97392.19;5088395;28;20684;-81
2023/09/02 02:13:06;;;;;;;9.10;8.20;;;;;;;20.65;62.74;97376.19;5070241;28;20261;-78
2023/09/02 02:15:34;;;;;;;6.20;5.53;;;;;;;20.91;62.24;97373.13;5087385;28;20630;-81
2023/09/02 02:18:02;;;;;;;4.27;3.87;;;;;;;21.10;61.67;97377.75;5069672;28;20727;-74
2023/09/02 02:20:49;;;;;;;7.80;4.50;;;;;;;21.25;61.43;97380.88;5052801;28;20545;-82
2023/09/02 02:23:20;;;;;;;5.80;4.23;;;;;;;21.30;60.88;97374.28;5087241;28;20201;-74
2023/09/02 02:25:47;;;;;;;5.03;3.97;;;;;;;21.39;60.89;97372.69;5068901;28;20185;-79
2023/09/02 02:28:17;;;;;;;5.50;3.93;;;;;;;21.47;60.66;97370.25;5069584;28;20214;-81
2023/09/02 02:30:45;;;;;;;4.33;3.93;;;;;;;21.43;60.62;97372.28;5069240;28;20212;-82
2023/09/02 02:33:12;;;;;;;4.80;4.23;;;;;;;21.51;60.62;97372.50;5069032;28;20195;-80
2023/09/02 02:35:39;;;;;;;5.33;4.40;;;;;;;21.03;61.61;97369.50;5086744;28;20323;-76
2023/09/02 02:38:06;;;;;;;6.80;4.77;;;;;;;21.12;61.60;97369.72;5051818;28;20641;-73
2023/09/02 02:40:33;;;;;;;5.70;4.40;;;;;;;21.11;61.17;97379.41;5068765;28;20719;-83
2023/09/02 02:43:01;;;;;;;4.33;3.93;;;;;;;20.50;62.88;97382.69;5068763;28;20199;-76
2023/09/02 02:45:28;;;;;;;5.83;4.13;;;;;;;20.57;63.06;97370.69;5086770;28;20191;-78
2023/09/02 02:47:57;;;;;;;14.27;4.87;;;;;;;20.77;61.84;97375.19;5087089;28;20217;-80
2023/09/02 02:50:24;;;;;;;6.80;4.20;;;;;;;20.74;61.78;97378.91;5086680;28;20188;-78
2023/09/02 02:52:52;;;;;;;4.63;4.03;;;;;;;20.02;63.81;97367.16;5052218;28;20200;-80
2023/09/02 02:55:19;;;;;;;5.37;4.27;;;;;;;20.15;63.42;97367.03;5068703;28;20242;-83
2023/09/02 02:57:47;;;;;;;4.47;4.07;;;;;;;20.43;62.98;97379.69;5051876;28;20193;-72
2023/09/02 03:00:16;;;;;;;5.17;3.80;;;;;;;20.67;62.50;97393.50;5086498;28;20245;-72
2023/09/02 03:02:43;;;;;;;5.37;4.27;;;;;;;20.58;62.13;97367.94;5086942;28;20196;-72
2023/09/02 03:05:10;;;;;;;4.60;4.20;;;;;;;20.79;62.00;97389.88;5068610;28;20246;-80
2023/09/02 03:07:39;;;;;;;5.87;4.60;;;;;;;20.40;63.00;97393.13;5086652;28;20216;-79
2023/09/02 03:10:08;;;;;;;4.73;4.23;;;;;;;20.25;63.21;97392.53;5087142;28;20184;-75
2023/09/02 03:12:35;;;;;;;5.03;4.53;;;;;;;19.96;64.35;97386.03;5086959;28;20185;-84
2023/09/02 03:15:06;;;;;;;5.23;3.97;;;;;;;19.72;64.50;97380.03;5052801;28;20188;-84
2023/09/02 03:17:33;;;;;;;5.37;4.07;;;;;;;19.59;65.35;97384.56;5086956;28;20284;-83
2023/09/02 03:20:03;;;;;;;6.43;3.77;;;;;;;19.87;64.80;97394.63;5051897;28;20204;-83
2023/09/02 03:22:34;;;;;;;6.23;3.87;;;;;;;19.96;63.93;97387.81;5068786;28;20554;-82
2023/09/02 03:25:02;;;;;;;4.93;4.30;;;;;;;19.85;64.37;97395.69;5068792;28;20679;-82
2023/09/02 03:27:31;;;;;;;4.93;4.43;;;;;;;19.73;64.24;97380.88;5068941;28;20216;-84
2023/09/02 03:29:58;;;;;;;7.10;4.43;;;;;;;19.60;65.25;97396.75;5068348;28;20192;-78
2023/09/02 03:32:26;;;;;;;5.37;4.63;;;;;;;19.42;65.49;97377.13;5086534;28;20228;-79
2023/09/02 03:34:55;;;;;;;6.23;5.07;;;;;;;19.62;64.74;97373.00;5068736;28;20230;-84
2023/09/02 03:37:23;;;;;;;4.43;4.03;;;;;;;19.90;64.01;97396.19;5052103;28;20253;-83
2023/09/02 03:39:51;;;;;;;5.43;4.30;;;;;;;19.98;63.42;97401.69;5068766;28;20192;-84
2023/09/02 03:42:18;;;;;;;4.87;4.07;;;;;;;19.94;63.34;97380.06;5086493;28;20877;-76
2023/09/02 03:44:45;;;;;;;5.37;4.27;;;;;;;20.24;62.57;97390.00;5068933;28;20295;-73
2023/09/02 03:47:13;;;;;;;7.60;4.17;;;;;;;20.43;62.33;97400.75;5089428;28;20215;-82
2023/09/02 03:49:41;;;;;;;5.20;4.20;;;;;;;20.38;62.22;97404.72;5072050;28;20193;-82
2023/09/02 03:52:08;;;;;;;5.53;4.53;;;;;;;20.46;62.20;97392.63;5072594;28;20184;-78
2023/09/02 03:54:37;;;;;;;5.30;4.70;;;;;;;20.59;61.52;97405.59;5055764;28;20196;-77
2023/09/02 03:57:05;;;;;;;5.87;3.97;;;;;;;20.65;61.76;97408.59;5072153;28;20188;-83
2023/09/02 03:59:32;;;;;;;5.33;4.63;;;;;;;20.84;61.14;97400.91;5090277;28;20188;-83
2023/09/02 04:01:59;;;;;;;8.87;5.00;;;;;;;20.84;61.51;97408.78;5090428;28;20199;-84
2023/09/02 04:04:27;;;;;;;6.77;4.90;;;;;;;20.88;61.64;97410.22;5071866;28;20193;-83
2023/09/02 04:06:54;;;;;;;7.10;4.50;;;;;;;21.09;61.60;97407.66;5071460;28;20180;-77
2023/09/02 04:09:22;;;;;;;7.03;4.00;;;;;;;21.04;61.07;97397.50;5055059;28;20221;-83
2023/09/02 04:11:49;;;;;;;6.47;5.27;;;;;;;21.28;60.54;97412.25;5071695;28;20197;-83
2023/09/02 04:14:16;;;;;;;6.53;4.50;;;;;;;20.95;60.98;97421.94;5071732;28;20247;-76
2023/09/02 04:16:44;;;;;;;7.23;4.90;;;;;;;20.35;63.55;97415.47;5089416;28;20657;-83
2023/09/02 04:19:11;;;;;;;9.00;4.77;;;;;;;20.37;63.61;97411.75;5071552;28;20312;-84
2023/09/02 04:21:39;;;;;;;7.17;5.03;;;;;;;20.44;63.38;97405.06;5071845;28;20199;-80
2023/09/02 04:24:08;;;;;;;8.30;5.30;;;;;;;20.61;63.33;97412.44;5056373;28;20203;-81
2023/09/02 04:26:35;;;;;;;11.80;5.87;;;;;;;20.90;63.14;97410.09;5071367;28;20194;-85
2023/09/02 04:29:02;;;;;;;8.70;7.40;;;;;;;21.04;62.54;97410.66;5071216;28;20222;-83
2023/09/02 04:31:29;;;;;;;13.10;8.27;;;;;;;21.09;62.52;97420.84;5091201;28;20254;-82
2023/09/02 04:33:57;;;;;;;12.03;8.40;;;;;;;20.92;62.78;97409.00;5089003;28;20189;-84
2023/09/02 04:36:24;;;;;;;8.23;6.07;;;;;;;21.16;62.49;97418.53;5071203;28;20196;-83
2023/09/02 04:38:52;;;;;;;10.73;6.20;;;;;;;21.42;62.18;97414.56;5070855;28;20185;-79
2023/09/02 04:41:20;;;;;;;9.27;6.57;;;;;;;21.51;61.94;97416.47;5054026;28;20708;-79
2023/09/02 04:43:51;;;;;;;6.23;5.57;;;;;;;21.41;63.87;97418.19;5072087;28;20189;-78
2023/09/02 04:46:18;;;;;;;7.10;5.63;;;;;;;21.38;63.43;97418.44;5070880;28;20300;-84
2023/09/02 04:48:47;;;;;;;8.07;6.50;;;;;;;21.52;62.99;97421.59;5088848;28;20220;-81
2023/09/02 04:51:17;;;;;;;10.87;7.07;;;;;;;21.69;63.02;97422.81;5054764;28;20239;-79
2023/09/02 04:53:45;;;;;;;8.83;6.77;;;;;;;21.56;63.88;97414.25;5054012;28;20193;-80
2023/09/02 04:56:12;;;;;;;8.60;6.30;;;;;;;21.40;65.07;97422.63;5053526;28;20574;-78
2023/09/02 04:58:40;;;;;;;8.73;6.40;;;;;;;21.13;65.84;97426.69;5069586;28;20270;-79
2023/09/02 05:01:12;;;;;;;7.77;5.87;;;;;;;21.21;65.88;97426.88;5070273;28;20237;-76
2023/09/02 05:03:48;;;;;;;7.60;6.43;;;;;;;21.38;65.35;97427.19;5070560;28;20274;-78
2023/09/02 05:06:15;;;;;;;9.20;5.67;;;;;;;21.47;65.19;97431.69;5072045;28;20256;-84
2023/09/02 05:08:45;;;;;;;11.53;6.13;;;;;;;21.40;65.38;97429.69;5055002;28;20222;-85
2023/09/02 05:11:17;;;;;;;8.20;6.47;;;;;;;21.73;64.16;97438.25;5056050;28;20189;-82
2023/09/02 05:13:44;;;;;;;8.73;5.70;;;;;;;22.04;63.26;97444.44;5053509;28;20285;-82
2023/09/02 05:16:11;;;;;;;7.87;5.87;;;;;;;22.01;63.47;97441.22;5070073;28;20187;-82
2023/09/02 05:18:39;;;;;;;9.03;5.67;;;;;;;21.98;63.56;97438.84;5069761;28;20191;-74
2023/09/02 05:21:06;;;;;;;7.23;6.53;;;;;;;22.25;62.97;97437.34;5069941;28;20241;-74
2023/09/02 05:23:33;;;;;;;6.17;5.57;;;;;;;21.93;63.09;97425.22;5069818;28;20276;-82
2023/09/02 05:26:02;;;;;;;9.10;5.07;;;;;;;22.07;63.12;97441.53;5069657;28;20627;-81
2023/09/02 05:28:30;;;;;;;11.23;6.33;;;;;;;22.22;62.88;97427.03;5088264;28;20315;-77
2023/09/02 05:30:57;;;;;;;8.00;6.77;;;;;;;22.23;63.07;97434.00;5087610;28;20215;-77
2023/09/02 05:33:25;;;;;;;7.10;6.03;;;;;;;22.36;62.87;97439.84;5069632;28;20299;-75
2023/09/02 05:35:52;;;;;;;11.70;6.77;;;;;;;22.67;62.07;97439.88;5087683;28;20716;-81
2023/09/02 05:38:21;;;;;;;7.17;5.77;;;;;;;22.92;61.50;97442.00;5087266;28;20686;-74
2023/09/02 05:40:50;;;;;;;10.43;6.37;;;;;;;22.87;61.30;97433.66;5049654;28;20231;-75
2023/09/02 05:43:17;;;;;;;9.07;5.93;;;;;;;22.96;61.02;97432.81;5032898;28;20196;-74
2023/09/02 05:45:47;;;;;;;6.63;5.70;;;;;;;23.34;60.96;97427.63;5067787;28;20851;-76
2023/09/02 05:48:14;;;;;;;7.50;6.23;;;;;;;23.65;58.95;97441.50;5067333;28;20242;-73
2023/09/02 05:50:42;;;;;;;8.07;5.97;;;;;;;23.93;57.29;97430.88;5065976;28;20264;-74
2023/09/02 05:53:10;;;;;;;8.33;6.33;;;;;;;23.52;58.25;97418.00;5049990;28;20197;-75
2023/09/02 05:55:39;;;;;;;20.20;6.53;;;;;;;23.57;58.45;97439.59;5056312;28;20191;-81
2023/09/02 05:58:06;;;;;;;8.17;6.67;;;;;;;23.42;59.18;97440.97;5068563;28;20198;-76
2023/09/02 06:00:36;;;;;;;10.20;6.30;;;;;;;23.36;59.24;97423.88;5067221;28;20195;-77
2023/09/02 06:03:03;;;;;;;8.03;6.70;;;;;;;23.39;60.18;97438.59;5065746;28;20233;-77
2023/09/02 06:05:31;;;;;;;7.00;5.97;;;;;;;23.38;60.00;97440.44;5066973;28;20268;-76
2023/09/02 06:07:58;;;;;;;8.57;5.90;;;;;;;23.55;59.87;97425.66;5066915;28;20239;-76
2023/09/02 06:10:26;;;;;;;9.37;6.63;;;;;;;23.57;59.17;97434.28;5047976;28;20242;-78
2023/09/02 06:12:53;;;;;;;8.17;6.20;;;;;;;23.92;58.58;97431.88;5066622;28;20553;-81
2023/09/02 06:15:21;;;;;;;9.17;6.40;;;;;;;24.30;57.46;97432.78;5065645;28;20194;-82
2023/09/02 06:17:49;;;;;;;14.97;10.00;;;;;;;24.52;57.64;97421.78;5052572;28;20233;-75
2023/09/02 06:20:20;;;;;;;12.37;8.23;;;;;;;24.91;55.54;97434.72;5047337;28;20210;-74
2023/09/02 06:22:48;;;;;;;10.07;6.37;;;;;;;25.03;54.08;97425.56;5046376;28;20838;-74
2023/09/02 06:25:15;;;;;;;10.53;6.70;;;;;;;25.09;55.08;97434.72;5046403;28;20196;-74
2023/09/02 06:27:43;;;;;;;7.43;5.67;;;;;;;25.19;52.89;97438.16;5028384;28;20225;-73
2023/09/02 06:30:10;;;;;;;5.77;4.73;;;;;;;24.96;51.04;97443.03;5046493;28;20196;-76
2023/09/02 06:32:38;;;;;;;7.63;5.77;;;;;;;25.16;51.77;97449.06;5045017;28;20680;-76
2023/09/02 06:35:12;;;;;;;5.47;4.90;;;;;;;25.17;51.95;97441.91;5053392;28;20682;-78
2023/09/02 06:37:39;;;;;;;8.43;5.30;;;;;;;25.47;51.47;97441.59;5058100;28;20736;-76
2023/09/02 06:40:09;;;;;;;6.30;5.40;;;;;;;25.48;51.13;97454.69;5053108;28;20272;-82
2023/09/02 06:42:36;;;;;;;6.83;5.57;;;;;;;25.56;51.55;97444.16;5086682;28;20277;-74
2023/09/02 06:45:04;;;;;;;5.70;5.20;;;;;;;25.85;50.67;97446.53;5068947;28;20204;-75
2023/09/02 06:47:32;;;;;;;8.63;5.40;;;;;;;26.14;49.33;97451.59;5068708;28;20202;-75
2023/09/02 06:49:59;;;;;;;7.63;5.13;;;;;;;26.17;49.82;97441.47;5067981;28;20719;-76
2023/09/02 06:52:26;;;;;;;7.97;5.17;;;;;;;26.26;48.56;97427.25;5086806;28;20187;-74
2023/09/02 06:54:53;;;;;;;9.17;5.60;;;;;;;26.52;48.27;97448.50;5086890;28;20212;-74
2023/09/02 06:57:21;;;;;;;8.07;5.70;;;;;;;26.47;47.23;97443.66;5067013;28;20679;-73
2023/09/02 06:59:48;;;;;;;7.20;4.67;;;;;;;26.44;47.19;97445.81;5079794;28;20207;-76
2023/09/02 07:02:16;;;;;;;7.93;4.97;;;;;;;26.53;46.95;97434.19;5082923;28;20200;-74
2023/09/02 07:04:49;;;;;;;6.73;5.30;;;;;;;26.67;46.50;97438.91;5089286;28;20940;-75
2023/09/02 07:07:18;;;;;;;9.67;5.70;;;;;;;26.81;46.09;97451.63;5080562;28;20252;-82
2023/09/02 07:09:47;;;;;;;8.43;5.10;;;;;;;26.88;45.68;97457.97;5060025;28;20301;-78
2023/09/02 07:12:15;;;;;;;7.07;4.17;;;;;;;26.85;44.55;97454.81;5087601;28;20276;-79
2023/09/02 07:14:43;;;;;;;7.50;4.37;;;;;;;26.87;44.44;97435.06;5087742;28;20572;-81
2023/09/02 07:17:11;;;;;;;8.67;6.33;;;;;;;26.95;44.62;97453.69;5087102;28;20975;-78
2023/09/02 07:19:41;;;;;;;7.80;5.50;;;;;;;27.10;44.36;97436.09;5055565;28;20212;-82
2023/09/02 07:22:08;;;;;;;8.00;5.90;;;;;;;27.43;45.72;97450.31;5076962;28;20215;-85
2023/09/02 07:24:36;;;;;;;6.83;5.40;;;;;;;27.43;44.72;97442.31;5093070;28;20600;-77
2023/09/02 07:27:04;;;;;;;8.57;5.43;;;;;;;27.33;44.59;97426.50;5093086;28;20188;-77
2023/09/02 07:29:32;;;;;;;6.40;4.97;;;;;;;27.65;44.28;97455.00;5070797;28;20224;-78
2023/09/02 07:31:59;;;;;;;6.70;5.40;;;;;;;27.84;44.15;97437.84;5082481;28;20822;-85
2023/09/02 07:34:27;;;;;;;9.13;6.00;;;;;;;27.77;44.54;97448.34;5076811;28;20199;-80
2023/09/02 07:36:56;;;;;;;5.47;4.30;;;;;;;28.09;42.89;97445.66;5090520;28;20199;-79
2023/09/02 07:39:23;;;;;;;7.73;6.27;;;;;;;27.80;41.73;97424.03;5071504;28;20200;-82
2023/09/02 07:41:51;;;;;;;7.67;6.03;;;;;;;27.99;42.07;97452.16;5083585;28;20230;-85
2023/09/02 07:44:18;;;;;;;8.83;4.80;;;;;;;28.19;40.96;97445.50;5093467;28;20659;-78
2023/09/02 07:46:46;;;;;;;5.07;4.27;;;;;;;28.14;40.58;97434.50;5094301;28;20200;-81
2023/09/02 07:49:14;;;;;;;10.97;4.47;;;;;;;28.27;41.40;97442.81;5092301;28;20231;-81
2023/09/02 07:51:45;;;;;;;4.77;3.40;;;;;;;28.20;40.36;97431.16;5093034;28;20219;-83
2023/09/02 07:54:14;;;;;;;6.53;3.60;;;;;;;28.43;39.94;97444.59;5041161;28;20223;-79
2023/09/02 07:56:42;;;;;;;4.43;3.70;;;;;;;28.58;39.81;97424.25;5075918;28;20241;-81
2023/09/02 07:59:09;;;;;;;4.77;3.20;;;;;;;28.46;39.36;97397.09;5092530;28;20322;-80
2023/09/02 08:01:37;;;;;;;3.90;3.23;;;;;;;28.67;38.92;97440.03;5109713;28;20751;-78
2023/09/02 08:04:05;;;;;;;4.00;3.07;;;;;;;28.72;40.02;97436.88;5093000;28;20576;-77
2023/09/02 08:06:33;;;;;;;9.23;3.07;;;;;;;28.89;38.88;97449.94;5094379;28;20211;-80
2023/09/02 08:09:00;;;;;;;4.00;3.13;;;;;;;28.64;39.28;97442.22;5112746;28;20212;-78
2023/09/02 08:11:28;;;;;;;4.20;3.33;;;;;;;28.34;38.11;97445.63;5094340;28;20508;-84
2023/09/02 08:13:55;;;;;;;5.67;3.40;;;;;;;28.37;38.45;97427.47;5094482;28;20713;-81
2023/09/02 08:16:22;;;;;;;6.67;3.90;;;;;;;28.45;38.92;97448.75;5110715;28;20216;-82
2023/09/02 08:18:50;;;;;;;5.03;2.90;;;;;;;28.70;38.22;97453.03;5092292;28;20283;-80
2023/09/02 08:21:18;;;;;;;5.07;3.10;;;;;;;29.00;37.40;97445.25;5093910;28;20694;-80
2023/09/02 08:23:46;;;;;;;3.93;2.50;;;;;;;28.80;37.61;97453.66;5096972;28;20192;-81
2023/09/02 08:26:18;;;;;;;4.20;2.60;;;;;;;28.75;37.43;97436.50;5085343;28;20188;-84
2023/09/02 08:28:51;;;;;;;5.03;3.57;;;;;;;28.67;38.41;97449.88;5085374;28;20299;-82
2023/09/02 08:31:23;;;;;;;7.37;4.83;;;;;;;28.51;39.42;97429.41;5101098;28;20263;-78
2023/09/02 08:33:52;;;;;;;4.70;3.30;;;;;;;28.47;37.99;97436.09;5064760;28;20192;-80
2023/09/02 08:36:20;;;;;;;5.73;3.20;;;;;;;28.33;38.23;97436.81;5113063;28;20277;-77
2023/09/02 08:38:48;;;;;;;4.83;2.97;;;;;;;28.48;38.65;97444.94;5111178;28;20199;-77
2023/09/02 08:41:30;;;;;;;4.53;2.90;;;;;;;28.70;38.32;97437.03;5109848;28;20680;-77
2023/09/02 08:44:02;;;;;;;10.07;6.53;;;;;;;28.80;38.80;97451.00;5110162;28;20196;-80
2023/09/02 08:46:40;;;;;;;6.27;3.37;;;;;;;28.96;37.60;97444.75;5074066;28;20196;-74
2023/09/02 08:49:09;;;;;;;5.13;3.60;;;;;;;28.93;37.51;97439.78;5090804;28;20223;-73
2023/09/02 08:51:36;;;;;;;3.07;2.77;;;;;;;28.99;37.11;97444.41;5074200;28;20203;-74
2023/09/02 08:54:04;;;;;;;6.90;3.30;;;;;;;28.54;37.96;97417.59;5108640;28;20721;-75
2023/09/02 08:56:31;;;;;;;4.27;3.43;;;;;;;28.80;38.24;97444.81;5075347;28;20200;-75
2023/09/02 08:58:58;;;;;;;4.00;3.10;;;;;;;28.89;38.42;97438.47;5057516;28;20192;-75
2023/09/02 09:01:29;;;;;;;3.67;2.87;;;;;;;28.90;38.56;97443.63;5110531;28;20225;-75
2023/09/02 09:04:36;;;;;;;6.90;3.90;;;;;;;29.22;37.61;97449.81;5074342;28;20215;-74
2023/09/02 09:07:43;;;;;;;7.23;2.90;;;;;;;29.24;36.96;97440.63;5049220;28;20208;-74
2023/09/02 09:11:04;;;;;;;6.37;2.63;;;;;;;29.46;37.30;97444.31;5048935;28;20221;-75
2023/09/02 09:14:24;;;;;;;3.10;2.80;;;;;;;29.71;37.11;97443.97;5051746;28;20224;-75
2023/09/02 09:17:07;;;;;;;7.50;3.80;;;;;;;29.75;36.34;97439.09;5066928;28;20259;-78
2023/09/02 09:19:36;;;;;;;3.60;3.30;;;;;;;29.84;36.71;97427.34;5049676;28;20207;-74
2023/09/02 09:22:03;;;;;;;7.97;3.93;;;;;;;29.93;35.95;97428.94;5068271;28;20204;-75
2023/09/02 09:24:31;;;;;;;5.47;3.20;;;;;;;30.07;35.53;97438.00;5066351;28;20199;-73
2023/09/02 09:27:00;;;;;;;3.97;3.67;;;;;;;29.97;35.85;97424.88;5068538;28;20195;-75
2023/09/02 09:29:39;;;;;;;4.50;3.27;;;;;;;30.14;35.59;97422.88;5073815;28;20236;-74
2023/09/02 09:32:14;;;;;;;3.50;2.90;;;;;;;29.90;35.76;97426.63;5087496;28;20576;-77
2023/09/02 09:34:43;;;;;;;7.57;3.30;;;;;;;29.57;35.66;97411.88;5069407;28;20206;-75
2023/09/02 09:37:11;;;;;;;3.07;2.77;;;;;;;29.37;36.23;97413.31;5087523;28;20622;-75
2023/09/02 09:39:44;;;;;;;4.83;3.23;;;;;;;29.20;36.27;97422.47;5044872;28;20712;-77
2023/09/02 09:42:13;;;;;;;5.03;3.50;;;;;;;29.23;36.57;97414.09;5067376;28;20237;-75
2023/09/02 09:44:52;;;;;;;3.27;2.97;;;;;;;29.38;36.57;97428.34;5067718;28;20215;-79
2023/09/02 09:47:23;;;;;;;6.63;3.30;;;;;;;29.12;36.69;97417.16;5069229;28;20193;-83
2023/09/02 09:49:50;;;;;;;3.77;3.00;;;;;;;28.83;36.87;97381.28;5066582;28;20224;-81
2023/09/02 09:52:20;;;;;;;3.10;2.80;;;;;;;28.75;36.51;97416.00;5049568;28;20193;-76
2023/09/02 09:54:52;;;;;;;3.30;2.97;;;;;;;28.84;36.92;97409.66;5066915;28;20197;-75
2023/09/02 09:57:39;;;;;;;4.93;3.07;;;;;;;28.86;36.91;97410.28;5067599;28;20217;-73
2023/09/02 10:00:07;;;;;;;4.73;3.67;;;;;;;28.96;36.35;97410.91;5055114;28;20241;-75
2023/09/02 10:02:34;;;;;;;4.00;2.90;;;;;;;28.78;37.06;97402.34;5067693;28;20665;-78
2023/09/02 10:05:02;;;;;;;3.63;3.20;;;;;;;28.80;36.89;97413.66;5070850;28;20267;-75
2023/09/02 10:07:33;;;;;;;5.17;3.10;;;;;;;29.00;37.47;97410.56;5069843;28;20584;-74
2023/09/02 10:10:03;;;;;;;4.57;2.90;;;;;;;28.98;36.38;97406.22;5069387;28;20224;-76
2023/09/02 10:12:33;;;;;;;5.20;3.93;;;;;;;29.03;36.21;97413.72;5068447;28;20197;-74
2023/09/02 10:15:05;;;;;;;4.13;3.43;;;;;;;29.12;36.44;97401.97;5074103;28;20200;-76
2023/09/02 10:17:36;;;;;;;4.40;3.20;;;;;;;29.14;36.33;97410.63;5086255;28;20638;-81
2023/09/02 10:20:05;;;;;;;4.00;3.60;;;;;;;29.26;36.04;97411.94;5069020;28;20263;-77
2023/09/02 10:22:39;;;;;;;4.80;3.60;;;;;;;29.53;35.76;97415.91;5107274;28;20203;-84
2023/09/02 10:25:24;;;;;;;5.23;3.30;;;;;;;29.76;35.55;97413.25;5106576;28;20578;-80
2023/09/02 10:28:15;;;;;;;4.20;3.80;;;;;;;29.80;35.31;97418.00;5106896;28;20230;-81
2023/09/02 10:30:47;;;;;;;3.50;3.20;;;;;;;29.71;35.42;97408.41;5088848;28;20246;-83
2023/09/02 10:33:29;;;;;;;4.23;3.20;;;;;;;29.76;35.66;97411.38;5106875;28;20282;-79
2023/09/02 10:36:00;;;;;;;3.63;3.33;;;;;;;29.89;35.13;97411.59;5071872;28;20198;-80
2023/09/02 10:38:33;;;;;;;3.43;3.13;;;;;;;29.69;34.96;97410.44;5088544;28;20237;-75
2023/09/02 10:41:14;;;;;;;4.63;3.17;;;;;;;29.29;34.93;97341.34;5088392;28;20225;-76
2023/09/02 10:43:43;;;;;;;3.67;3.23;;;;;;;29.90;34.48;97410.59;5107491;28;20195;-81
2023/09/02 10:46:12;;;;;;;3.30;3.00;;;;;;;30.00;33.85;97410.34;5088344;28;20245;-78
2023/09/02 10:48:44;;;;;;;3.80;3.23;;;;;;;29.94;34.04;97413.72;5056761;28;20192;-85
2023/09/02 10:51:12;;;;;;;4.00;3.27;;;;;;;29.87;33.62;97400.28;5089086;28;20210;-78
2023/09/02 10:53:53;;;;;;;3.20;2.90;;;;;;;29.78;33.67;97412.03;5088475;28;20195;-80
2023/09/02 10:56:33;;;;;;;3.90;3.20;;;;;;;29.90;33.46;97407.94;5106043;28;20188;-78
2023/09/02 10:59:06;;;;;;;3.83;3.50;;;;;;;29.90;33.45;97413.28;5106923;28;20572;-80
2023/09/02 11:01:48;;;;;;;3.83;3.10;;;;;;;29.70;33.78;97358.66;5107026;28;20199;-78
2023/09/02 11:04:40;;;;;;;7.00;4.03;;;;;;;30.32;33.39;97397.50;5106764;28;20619;-83
2023/09/02 11:07:20;;;;;;;3.80;3.40;;;;;;;30.48;32.25;97399.97;5088353;28;20188;-84
2023/09/02 11:09:58;;;;;;;3.47;3.13;;;;;;;30.09;33.31;97404.72;5090185;28;20374;-84
2023/09/02 11:12:27;;;;;;;5.50;3.10;;;;;;;30.05;34.24;97411.44;5106871;28;20184;-80
2023/09/02 11:15:07;;;;;;;3.83;3.40;;;;;;;29.85;33.33;97402.28;5107460;28;20273;-81
2023/09/02 11:18:15;;;;;;;3.10;2.80;;;;;;;29.76;33.98;97398.03;5072414;28;20294;-79
2023/09/02 11:21:30;;;;;;;4.00;3.23;;;;;;;29.65;33.76;97396.63;5068784;28;20227;-85
2023/09/02 11:24:17;;;;;;;5.90;3.70;;;;;;;29.63;33.70;97390.63;5086314;28;20227;-82
2023/09/02 11:26:57;;;;;;;5.20;4.40;;;;;;;29.68;32.72;97387.38;5075827;28;20205;-81
2023/09/02 11:29:29;;;;;;;4.03;3.00;;;;;;;29.73;32.68;97383.22;5066355;28;20628;-84
2023/09/02 11:32:05;;;;;;;3.90;3.20;;;;;;;29.65;33.41;97385.09;5056966;28;20665;-81
2023/09/02 11:35:12;;;;;;;3.93;3.60;;;;;;;29.52;32.68;97383.03;5046774;28;20192;-81
2023/09/02 11:38:20;;;;;;;3.83;3.27;;;;;;;29.26;33.96;97371.91;5049028;28;20221;-81
2023/09/02 11:40:48;;;;;;;4.37;3.10;;;;;;;29.48;34.55;97354.19;5047825;28;20229;-82
2023/09/02 11:43:19;;;;;;;3.83;3.27;;;;;;;29.46;34.12;97370.41;5048495;28;20280;-78
2023/09/02 11:45:51;;;;;;;5.43;3.30;;;;;;;29.69;33.22;97371.22;5076231;28;20266;-84
2023/09/02 11:48:19;;;;;;;4.30;3.17;;;;;;;29.91;32.71;97366.00;5076015;28;20200;-79